createdAt,value
2023-03-30T00:01:06.222Z,6.75
2023-03-30T00:03:33.833Z,5.75
2023-03-30T00:06:05.261Z,6.22
2023-03-30T00:08:33.404Z,6.43
2023-03-30T00:11:01.994Z,5.93
2023-03-30T00:13:29.612Z,6.05
2023-03-30T00:15:57.001Z,6.00
2023-03-30T00:18:25.119Z,6.75
2023-03-30T00:20:53.361Z,7.35
2023-03-30T00:23:21.363Z,6.85
2023-03-30T00:25:48.937Z,7.10
2023-03-30T00:28:16.398Z,6.68
2023-03-30T00:30:43.819Z,7.18
2023-03-30T00:33:11.450Z,7.55
2023-03-30T00:35:38.847Z,7.85
2023-03-30T00:38:06.989Z,7.80
2023-03-30T00:40:35.256Z,8.05
2023-03-30T00:43:03.362Z,8.13
2023-03-30T00:45:30.857Z,8.20
2023-03-30T00:48:04.454Z,9.05
2023-03-30T00:50:43.823Z,9.43
2023-03-30T00:53:41.863Z,9.85
2023-03-30T00:56:10.349Z,11.90
2023-03-30T00:58:38.997Z,12.88
2023-03-30T01:01:08.429Z,10.10
2023-03-30T01:03:39.606Z,8.98
2023-03-30T01:06:08.076Z,9.73
2023-03-30T01:08:35.684Z,9.43
2023-03-30T01:11:03.874Z,9.77
2023-03-30T01:13:33.247Z,8.55
2023-03-30T01:16:06.449Z,7.88
2023-03-30T01:18:40.691Z,7.63
2023-03-30T01:21:27.738Z,8.55
2023-03-30T01:24:16.005Z,8.82
2023-03-30T01:26:47.359Z,8.50
2023-03-30T01:29:14.824Z,8.35
2023-03-30T01:31:46.845Z,8.93
2023-03-30T01:34:14.324Z,8.32
2023-03-30T01:37:00.037Z,8.00
2023-03-30T01:39:44.748Z,8.20
2023-03-30T01:42:17.176Z,7.75
2023-03-30T01:44:50.620Z,7.93
2023-03-30T01:47:18.661Z,7.38
2023-03-30T01:49:49.102Z,7.38
2023-03-30T01:52:16.698Z,7.47
2023-03-30T01:54:58.017Z,7.80
2023-03-30T01:57:32.023Z,7.13
2023-03-30T02:00:01.421Z,8.35
2023-03-30T02:02:31.126Z,8.25
2023-03-30T02:05:05.213Z,7.90
2023-03-30T02:07:33.649Z,8.85
2023-03-30T02:10:06.968Z,9.60
2023-03-30T02:12:35.104Z,10.25
2023-03-30T02:15:04.783Z,10.43
2023-03-30T02:17:33.108Z,9.70
2023-03-30T02:20:00.682Z,9.02
2023-03-30T02:22:29.567Z,8.88
2023-03-30T02:24:58.477Z,8.90
2023-03-30T02:27:27.143Z,9.35
2023-03-30T02:29:56.328Z,14.18
2023-03-30T02:32:25.070Z,15.50
2023-03-30T02:35:10.914Z,17.67
2023-03-30T02:37:53.666Z,21.95
2023-03-30T02:40:53.588Z,20.65
2023-03-30T02:43:40.037Z,20.52
2023-03-30T02:46:35.385Z,18.92
2023-03-30T02:49:16.736Z,14.82
2023-03-30T02:52:14.167Z,19.88
2023-03-30T02:54:55.688Z,22.77
2023-03-30T02:58:07.760Z,25.65
2023-03-30T03:01:02.296Z,33.45
2023-03-30T03:03:47.702Z,31.48
2023-03-30T03:06:17.183Z,32.00
2023-03-30T03:08:49.643Z,33.40
2023-03-30T03:11:23.492Z,35.83
2023-03-30T03:13:51.242Z,36.10
2023-03-30T03:16:19.099Z,37.08
2023-03-30T03:19:05.711Z,37.67
2023-03-30T03:21:33.388Z,37.50
2023-03-30T03:24:01.668Z,35.75
2023-03-30T03:26:49.087Z,25.08
2023-03-30T03:29:17.324Z,31.50
2023-03-30T03:31:44.795Z,22.45
2023-03-30T03:34:12.516Z,23.98
2023-03-30T03:36:55.147Z,28.48
2023-03-30T03:39:25.955Z,32.10
2023-03-30T03:42:00.359Z,29.23
2023-03-30T03:44:27.992Z,28.45
2023-03-30T03:46:55.781Z,31.77
2023-03-30T03:49:23.359Z,30.98
2023-03-30T03:51:50.874Z,28.48
2023-03-30T03:54:18.430Z,29.75
2023-03-30T03:56:48.563Z,27.67
2023-03-30T03:59:16.004Z,29.48
2023-03-30T04:01:43.429Z,26.30
2023-03-30T04:04:11.037Z,25.00
2023-03-30T04:06:40.549Z,26.38
2023-03-30T04:09:09.158Z,26.75
2023-03-30T04:11:56.779Z,26.98
2023-03-30T04:14:44.474Z,25.35
2023-03-30T04:17:11.897Z,22.80
2023-03-30T04:19:39.259Z,22.90
2023-03-30T04:22:42.142Z,24.42
2023-03-30T04:25:41.926Z,20.52
2023-03-30T04:28:35.133Z,21.02
2023-03-30T04:31:19.941Z,17.60
2023-03-30T04:34:09.458Z,18.88
2023-03-30T04:36:45.726Z,16.95
2023-03-30T04:39:38.622Z,13.05
2023-03-30T04:42:30.443Z,23.55
2023-03-30T04:45:21.057Z,25.48
2023-03-30T04:48:00.657Z,18.42
2023-03-30T04:50:47.993Z,15.02
2023-03-30T04:53:35.283Z,16.58
2023-03-30T04:56:37.798Z,17.10
2023-03-30T04:59:11.365Z,16.67
2023-03-30T05:01:58.125Z,17.73
2023-03-30T05:04:46.159Z,17.00
2023-03-30T05:07:42.765Z,17.35
2023-03-30T05:10:21.595Z,16.48
2023-03-30T05:13:09.014Z,17.95
2023-03-30T05:15:53.734Z,18.75
2023-03-30T05:18:40.016Z,20.88
2023-03-30T05:21:15.948Z,23.77
2023-03-30T05:24:18.634Z,28.67
2023-03-30T05:27:07.910Z,27.67
2023-03-30T05:32:36.238Z,19.65
2023-03-30T05:35:24.037Z,19.33
2023-03-30T05:38:23.765Z,18.42
2023-03-30T05:41:10.169Z,21.10
2023-03-30T05:43:43.537Z,19.48
2023-03-30T05:46:23.231Z,20.08
2023-03-30T05:49:17.802Z,21.13
2023-03-30T05:52:04.027Z,21.38
2023-03-30T05:54:51.712Z,20.17
2023-03-30T05:57:33.797Z,19.95
2023-03-30T06:00:25.907Z,17.65
2023-03-30T06:03:05.746Z,17.60
2023-03-30T06:05:36.121Z,16.38
2023-03-30T06:08:05.249Z,15.20
2023-03-30T06:10:32.625Z,14.50
2023-03-30T06:13:00.165Z,14.25
2023-03-30T06:15:47.867Z,13.25
2023-03-30T06:18:21.400Z,13.18
2023-03-30T06:21:03.052Z,12.52
2023-03-30T06:23:31.182Z,13.23
2023-03-30T06:26:03.294Z,13.35
2023-03-30T06:28:33.683Z,14.13
2023-03-30T06:31:03.182Z,14.70
2023-03-30T06:33:31.655Z,14.35
2023-03-30T06:36:01.943Z,14.35
2023-03-30T06:38:29.619Z,14.35
2023-03-30T06:40:57.643Z,14.23
2023-03-30T06:43:27.550Z,13.45
2023-03-30T06:46:08.459Z,13.50
2023-03-30T06:48:36.833Z,13.25
2023-03-30T06:51:22.782Z,12.88
2023-03-30T06:53:50.416Z,15.02
2023-03-30T06:56:17.832Z,14.10
2023-03-30T06:59:03.265Z,15.88
2023-03-30T07:01:31.765Z,14.70
2023-03-30T07:04:17.504Z,15.63
2023-03-30T07:07:04.885Z,15.20
2023-03-30T07:09:32.558Z,15.73
2023-03-30T07:12:00.297Z,16.25
2023-03-30T07:14:27.874Z,16.85
2023-03-30T07:16:55.416Z,16.30
2023-03-30T07:19:23.499Z,14.85
2023-03-30T07:24:21.730Z,14.27
2023-03-30T07:26:49.177Z,12.68
2023-03-30T07:29:16.874Z,12.68
2023-03-30T07:31:48.097Z,15.07
2023-03-30T07:34:17.531Z,12.30
2023-03-30T07:36:50.907Z,11.77
2023-03-30T07:39:18.766Z,10.43
2023-03-30T07:41:48.302Z,9.25
2023-03-30T07:44:16.137Z,10.80
2023-03-30T07:46:43.900Z,10.63
2023-03-30T07:49:17.083Z,4.95
2023-03-30T07:51:44.615Z,6.53
2023-03-30T07:54:22.377Z,5.38
2023-03-30T07:57:00.194Z,6.20
2023-03-30T07:59:28.039Z,6.82
2023-03-30T08:02:02.185Z,6.00
2023-03-30T08:04:46.732Z,3.88
2023-03-30T08:07:17.830Z,3.33
2023-03-30T08:09:46.940Z,3.85
2023-03-30T08:12:14.346Z,4.38
2023-03-30T08:14:41.817Z,4.88
2023-03-30T08:17:09.342Z,4.22
2023-03-30T08:19:36.751Z,3.83
2023-03-30T08:22:04.223Z,5.10
2023-03-30T08:24:32.014Z,4.05
2023-03-30T08:26:59.486Z,4.40
2023-03-30T08:29:27.096Z,5.03
2023-03-30T08:31:54.623Z,4.30
2023-03-30T08:34:22.295Z,4.50
2023-03-30T08:36:49.760Z,4.45
2023-03-30T08:39:17.135Z,4.45
2023-03-30T08:41:50.565Z,4.95
2023-03-30T08:44:19.642Z,5.40
2023-03-30T08:46:48.299Z,5.13
2023-03-30T08:49:18.061Z,4.55
2023-03-30T08:51:46.468Z,5.50
2023-03-30T08:54:16.867Z,7.30
2023-03-30T08:57:03.458Z,3.83
2023-03-30T08:59:31.169Z,4.75
2023-03-30T09:02:14.904Z,4.50
2023-03-30T09:04:42.374Z,4.28
2023-03-30T09:07:17.858Z,4.18
2023-03-30T09:09:49.052Z,4.80
2023-03-30T09:12:19.531Z,5.40
2023-03-30T09:14:59.007Z,5.22
2023-03-30T09:17:32.336Z,5.32
2023-03-30T09:20:07.149Z,5.80
2023-03-30T09:22:38.332Z,5.18
2023-03-30T09:25:18.247Z,4.82
2023-03-30T09:27:55.666Z,5.22
2023-03-30T09:30:25.970Z,4.88
2023-03-30T09:33:07.820Z,5.65
2023-03-30T09:35:42.621Z,5.28
2023-03-30T09:38:11.967Z,6.07
2023-03-30T09:41:01.005Z,6.80
2023-03-30T09:43:28.518Z,4.90
2023-03-30T09:45:57.736Z,4.30
2023-03-30T09:48:25.327Z,3.92
2023-03-30T09:50:52.677Z,4.25
2023-03-30T09:53:29.406Z,5.00
2023-03-30T09:56:10.152Z,3.65
2023-03-30T09:58:38.250Z,3.70
2023-03-30T10:01:13.323Z,6.05
2023-03-30T10:03:41.933Z,3.08
2023-03-30T10:06:28.034Z,3.00
2023-03-30T10:08:56.745Z,3.20
2023-03-30T10:11:50.494Z,2.60
2023-03-30T10:14:44.365Z,2.75
2023-03-30T10:17:20.711Z,2.53
2023-03-30T10:19:51.756Z,3.08
2023-03-30T10:22:22.994Z,3.00
2023-03-30T10:24:52.100Z,2.70
2023-03-30T10:27:20.113Z,3.33
2023-03-30T10:29:50.316Z,2.83
2023-03-30T10:32:32.349Z,3.10
2023-03-30T10:35:04.560Z,2.83
2023-03-30T10:37:34.144Z,2.80
2023-03-30T10:40:05.545Z,2.40
2023-03-30T10:42:33.758Z,2.65
2023-03-30T10:45:02.397Z,2.58
2023-03-30T10:47:48.737Z,2.78
2023-03-30T10:50:36.043Z,2.60
2023-03-30T10:53:06.735Z,2.72
2023-03-30T10:55:34.197Z,3.10
2023-03-30T10:58:19.927Z,2.60
2023-03-30T11:01:06.430Z,2.60
2023-03-30T11:03:35.516Z,3.00
2023-03-30T11:06:09.930Z,3.00
2023-03-30T11:08:39.406Z,2.80
2023-03-30T11:11:07.848Z,2.80
2023-03-30T11:13:41.212Z,2.80
2023-03-30T11:16:14.514Z,2.90
2023-03-30T11:19:00.530Z,3.30
2023-03-30T11:21:31.526Z,3.40
2023-03-30T11:24:02.229Z,3.10
2023-03-30T11:26:36.117Z,2.65
2023-03-30T11:29:08.326Z,2.75
2023-03-30T11:31:42.217Z,2.20
2023-03-30T11:34:29.950Z,3.00
2023-03-30T11:37:01.525Z,3.03
2023-03-30T11:39:32.856Z,2.90
2023-03-30T11:42:30.073Z,3.22
2023-03-30T11:44:57.781Z,3.72
2023-03-30T11:47:37.803Z,3.42
2023-03-30T11:50:08.522Z,3.58
2023-03-30T11:52:45.739Z,3.00
2023-03-30T11:55:19.367Z,3.17
2023-03-30T11:57:54.545Z,2.55
2023-03-30T12:00:22.320Z,3.00
2023-03-30T12:02:56.554Z,2.72
2023-03-30T12:05:24.062Z,2.85
2023-03-30T12:08:10.499Z,4.80
2023-03-30T12:10:40.771Z,3.20
2023-03-30T12:13:19.151Z,3.28
2023-03-30T12:15:53.878Z,5.32
2023-03-30T12:18:24.488Z,5.03
2023-03-30T12:20:58.121Z,11.05
2023-03-30T12:23:35.624Z,3.38
2023-03-30T12:26:21.856Z,3.90
2023-03-30T12:29:40.535Z,3.58
2023-03-30T12:31:52.784Z,3.35
2023-03-30T12:34:20.858Z,3.20
2023-03-30T12:37:11.024Z,2.92
2023-03-30T12:39:49.263Z,3.38
2023-03-30T12:42:34.482Z,2.78
2023-03-30T12:45:21.160Z,2.72
2023-03-30T12:47:48.757Z,2.70
2023-03-30T12:50:16.096Z,2.58
2023-03-30T12:52:47.611Z,2.70
2023-03-30T12:55:33.977Z,2.42
2023-03-30T12:58:19.990Z,3.30
2023-03-30T13:00:48.056Z,2.85
2023-03-30T13:03:15.530Z,5.03
2023-03-30T13:05:44.405Z,2.95
2023-03-30T13:08:30.456Z,2.63
2023-03-30T13:11:30.085Z,2.30
2023-03-30T13:13:57.533Z,2.50
2023-03-30T13:16:43.810Z,2.58
2023-03-30T13:19:28.227Z,1.77
2023-03-30T13:21:57.607Z,2.00
2023-03-30T13:24:28.424Z,1.83
2023-03-30T13:27:10.761Z,2.60
2023-03-30T13:29:38.225Z,2.45
2023-03-30T13:32:24.153Z,2.80
2023-03-30T13:35:05.360Z,2.78
2023-03-30T13:37:53.487Z,1.92
2023-03-30T13:40:35.561Z,2.00
2023-03-30T13:43:13.676Z,2.50
2023-03-30T13:46:13.330Z,2.25
2023-03-30T13:48:44.098Z,2.20
2023-03-30T13:51:15.457Z,2.25
2023-03-30T13:53:46.595Z,2.13
2023-03-30T13:56:14.596Z,2.10
2023-03-30T13:58:43.902Z,2.25
2023-03-30T14:01:13.411Z,2.50
2023-03-30T14:03:46.392Z,2.20
2023-03-30T14:06:14.274Z,2.15
2023-03-30T14:08:45.088Z,2.25
2023-03-30T14:11:15.632Z,2.90
2023-03-30T14:13:43.836Z,2.08
2023-03-30T14:16:14.191Z,2.20
2023-03-30T14:18:41.734Z,2.05
2023-03-30T14:21:11.940Z,2.35
2023-03-30T14:23:45.948Z,2.30
2023-03-30T14:26:13.508Z,3.13
2023-03-30T14:28:42.589Z,2.33
2023-03-30T14:31:14.999Z,2.20
2023-03-30T14:33:42.562Z,2.25
2023-03-30T14:36:12.044Z,2.20
2023-03-30T14:38:40.815Z,2.25
2023-03-30T14:41:09.557Z,2.30
2023-03-30T14:43:40.573Z,2.20
2023-03-30T14:46:10.801Z,2.10
2023-03-30T14:48:39.941Z,1.92
2023-03-30T14:51:09.606Z,1.77
2023-03-30T14:53:37.305Z,2.10
2023-03-30T14:56:05.095Z,2.15
2023-03-30T14:58:33.597Z,2.30
2023-03-30T15:01:09.266Z,2.10
2023-03-30T15:03:37.976Z,1.73
2023-03-30T15:06:06.961Z,2.20
2023-03-30T15:08:37.359Z,2.40
2023-03-30T15:11:09.536Z,2.20
2023-03-30T15:13:39.901Z,2.30
2023-03-30T15:16:07.466Z,2.30
2023-03-30T15:18:36.525Z,2.20
2023-03-30T15:21:04.312Z,2.45
2023-03-30T15:23:37.068Z,2.60
2023-03-30T15:26:07.140Z,3.10
2023-03-30T15:28:44.306Z,2.33
2023-03-30T15:31:14.076Z,3.25
2023-03-30T15:33:46.816Z,2.50
2023-03-30T15:36:18.239Z,2.83
2023-03-30T15:38:50.499Z,2.33
2023-03-30T15:41:18.545Z,2.30
2023-03-30T15:44:09.023Z,2.35
2023-03-30T15:46:37.014Z,2.40
2023-03-30T15:49:05.366Z,2.90
2023-03-30T15:51:37.991Z,2.45
2023-03-30T15:54:12.949Z,2.60
2023-03-30T15:56:52.995Z,2.83
2023-03-30T15:59:22.040Z,2.90
2023-03-30T16:01:52.126Z,3.17
2023-03-30T16:04:20.746Z,3.20
2023-03-30T16:06:48.455Z,3.25
2023-03-30T16:09:16.478Z,3.20
2023-03-30T16:11:45.727Z,2.88
2023-03-30T16:14:22.980Z,3.55
2023-03-30T16:16:50.586Z,4.00
2023-03-30T16:19:19.918Z,5.15
2023-03-30T16:21:47.415Z,4.63
2023-03-30T16:24:14.835Z,4.80
2023-03-30T16:26:42.665Z,5.10
2023-03-30T16:29:31.380Z,5.05
2023-03-30T16:31:59.215Z,5.38
2023-03-30T16:34:26.642Z,5.60
2023-03-30T16:36:54.125Z,6.03
2023-03-30T16:39:23.037Z,6.75
2023-03-30T16:41:51.208Z,7.70
2023-03-30T16:44:19.950Z,8.57
2023-03-30T16:46:47.782Z,8.40
2023-03-30T16:49:16.635Z,9.25
2023-03-30T16:51:44.264Z,9.38
2023-03-30T16:54:27.193Z,6.90
2023-03-30T16:56:58.535Z,7.93
2023-03-30T16:59:27.089Z,7.35
2023-03-30T17:01:54.657Z,7.57
2023-03-30T17:04:22.135Z,8.20
2023-03-30T17:06:49.682Z,8.73
2023-03-30T17:09:18.190Z,9.82
2023-03-30T17:11:49.513Z,12.65
2023-03-30T17:14:17.587Z,16.20
2023-03-30T17:16:45.093Z,18.23
2023-03-30T17:19:13.723Z,19.00
2023-03-30T17:21:43.574Z,18.98
2023-03-30T17:24:15.259Z,19.60
2023-03-30T17:26:43.155Z,19.77
2023-03-30T17:29:11.248Z,18.23
2023-03-30T17:31:39.168Z,13.65
2023-03-30T17:34:07.447Z,16.60
2023-03-30T17:36:35.174Z,21.83
2023-03-30T17:39:05.613Z,29.95
2023-03-30T17:41:36.237Z,36.83
2023-03-30T17:44:03.760Z,25.95
2023-03-30T17:46:31.304Z,24.83
2023-03-30T17:49:00.000Z,24.65
2023-03-30T17:51:27.675Z,25.13
2023-03-30T17:53:55.207Z,25.73
2023-03-30T17:56:22.642Z,24.08
2023-03-30T17:58:51.846Z,23.67
2023-03-30T18:01:19.325Z,24.27
2023-03-30T18:03:46.935Z,23.10
2023-03-30T18:06:14.418Z,22.38
2023-03-30T18:08:43.212Z,23.45
2023-03-30T18:11:10.955Z,24.63
2023-03-30T18:13:38.464Z,30.95
2023-03-30T18:16:06.131Z,32.78
2023-03-30T18:18:33.642Z,31.42
2023-03-30T18:21:06.698Z,35.95
2023-03-30T18:23:35.133Z,48.55
2023-03-30T18:26:11.218Z,54.35
2023-03-30T18:28:42.505Z,48.13
2023-03-30T18:31:10.366Z,48.28
2023-03-30T18:33:39.340Z,49.15
2023-03-30T18:36:12.918Z,60.35
2023-03-30T18:38:41.339Z,67.10
2023-03-30T18:41:11.469Z,51.33
2023-03-30T18:43:39.500Z,45.63
2023-03-30T18:46:07.330Z,37.30
2023-03-30T18:48:35.591Z,33.53
2023-03-30T18:51:03.341Z,33.83
2023-03-30T18:53:30.954Z,33.20
2023-03-30T18:56:00.826Z,34.22
2023-03-30T18:58:29.703Z,36.78
2023-03-30T19:00:57.252Z,33.38
2023-03-30T19:03:25.679Z,29.98
2023-03-30T19:05:59.256Z,31.15
2023-03-30T19:08:27.224Z,36.90
2023-03-30T19:10:56.386Z,34.67
2023-03-30T19:13:25.217Z,35.80
2023-03-30T19:15:53.165Z,38.97
2023-03-30T19:18:21.060Z,53.25
2023-03-30T19:20:53.358Z,41.28
2023-03-30T19:23:21.927Z,35.80
2023-03-30T19:25:49.442Z,35.72
2023-03-30T19:28:17.136Z,35.85
2023-03-30T19:30:45.068Z,35.63
2023-03-30T19:33:16.291Z,34.28
2023-03-30T19:35:44.981Z,32.45
2023-03-30T19:38:12.830Z,31.13
2023-03-30T19:40:40.766Z,32.90
2023-03-30T19:43:08.440Z,31.17
2023-03-30T19:45:36.332Z,26.88
2023-03-30T19:48:04.239Z,24.17
2023-03-30T19:50:31.844Z,22.60
2023-03-30T19:52:59.478Z,20.58
2023-03-30T19:55:27.251Z,18.85
2023-03-30T19:57:54.653Z,19.05
2023-03-30T20:00:22.144Z,18.02
2023-03-30T20:02:50.857Z,17.73
2023-03-30T20:05:19.051Z,18.00
2023-03-30T20:07:47.420Z,17.67
2023-03-30T20:10:16.652Z,18.88
2023-03-30T20:12:44.034Z,18.67
2023-03-30T20:15:11.758Z,18.55
2023-03-30T20:17:40.075Z,18.05
2023-03-30T20:20:09.278Z,18.60
2023-03-30T20:22:37.530Z,18.67
2023-03-30T20:25:07.548Z,17.10
2023-03-30T20:27:35.749Z,19.45
2023-03-30T20:30:03.584Z,18.08
2023-03-30T20:32:31.072Z,18.85
2023-03-30T20:34:58.704Z,19.42
2023-03-30T20:37:26.144Z,18.73
2023-03-30T20:39:53.563Z,18.75
2023-03-30T20:42:26.357Z,18.33
2023-03-30T20:44:55.793Z,20.20
2023-03-30T20:47:23.496Z,19.92
2023-03-30T20:49:50.968Z,22.58
2023-03-30T20:52:18.373Z,20.88
2023-03-30T20:54:45.793Z,20.27
2023-03-30T20:57:13.352Z,20.30
2023-03-30T20:59:41.166Z,18.73
2023-03-30T21:02:08.694Z,19.40
2023-03-30T21:04:36.619Z,20.55
2023-03-30T21:07:04.398Z,22.27
2023-03-30T21:09:31.912Z,23.38
2023-03-30T21:11:59.353Z,23.42
2023-03-30T21:14:27.527Z,21.35
2023-03-30T21:16:55.012Z,21.58
2023-03-30T21:19:22.420Z,21.98
2023-03-30T21:21:49.833Z,21.20
2023-03-30T21:24:18.506Z,20.10
2023-03-30T21:26:46.106Z,18.52
2023-03-30T21:29:13.495Z,19.25
2023-03-30T21:31:40.934Z,18.95
2023-03-30T21:34:09.092Z,16.85
2023-03-30T21:36:36.772Z,17.50
2023-03-30T21:39:04.238Z,16.83
2023-03-30T21:41:31.696Z,15.45
2023-03-30T21:43:59.144Z,14.63
2023-03-30T21:46:27.120Z,13.38
2023-03-30T21:48:54.794Z,12.52
2023-03-30T21:51:27.403Z,13.55
2023-03-30T21:53:55.963Z,11.00
2023-03-30T21:56:25.149Z,12.20
2023-03-30T21:58:52.924Z,10.98
2023-03-30T22:01:20.952Z,9.38
2023-03-30T22:03:48.732Z,8.55
2023-03-30T22:06:17.287Z,7.65
2023-03-30T22:08:45.687Z,7.55
2023-03-30T22:11:14.918Z,9.73
2023-03-30T22:13:42.551Z,8.25
2023-03-30T22:16:16.398Z,8.57
2023-03-30T22:18:44.396Z,8.30
2023-03-30T22:21:17.261Z,8.05
2023-03-30T22:23:45.137Z,8.90
2023-03-30T22:26:13.089Z,10.10
2023-03-30T22:28:41.075Z,10.55
2023-03-30T22:31:09.175Z,8.80
2023-03-30T22:33:36.662Z,9.20
2023-03-30T22:36:04.727Z,8.00
2023-03-30T22:38:32.270Z,8.07
2023-03-30T22:41:07.128Z,7.75
2023-03-30T22:43:35.990Z,8.15
2023-03-30T22:46:03.836Z,8.30
2023-03-30T22:48:31.368Z,8.88
2023-03-30T22:51:02.205Z,9.43
2023-03-30T22:53:33.013Z,9.27
2023-03-30T22:56:00.749Z,8.70
2023-03-30T22:58:28.266Z,8.32
2023-03-30T23:01:02.567Z,8.48
2023-03-30T23:03:30.266Z,7.00
2023-03-30T23:06:01.395Z,7.20
2023-03-30T23:08:32.446Z,8.52
2023-03-30T23:11:05.126Z,8.25
2023-03-30T23:13:37.862Z,8.98
2023-03-30T23:16:06.794Z,9.30
2023-03-30T23:18:35.219Z,8.68
2023-03-30T23:21:06.951Z,8.77
2023-03-30T23:23:35.375Z,8.65
2023-03-30T23:26:08.412Z,7.70
2023-03-30T23:28:37.736Z,8.10
2023-03-30T23:31:12.645Z,7.50
2023-03-30T23:33:40.527Z,6.50
2023-03-30T23:36:08.957Z,7.55
2023-03-30T23:38:37.547Z,7.93
2023-03-30T23:41:06.055Z,7.20
2023-03-30T23:43:33.607Z,7.80
2023-03-30T23:46:01.023Z,7.57
2023-03-30T23:48:28.611Z,7.05
2023-03-30T23:50:56.953Z,7.65
2023-03-30T23:53:26.436Z,7.78
2023-03-30T23:55:54.404Z,7.85
2023-03-30T23:58:21.796Z,7.40
